createdAt,value
2022-08-01T00:00:13.669Z,83.27
2022-08-01T00:03:02.342Z,82.77
2022-08-01T00:05:31.630Z,82.43
2022-08-01T00:08:00.440Z,82.73
2022-08-01T00:10:29.304Z,83.17
2022-08-01T00:12:57.873Z,82.54
2022-08-01T00:15:26.406Z,82.68
2022-08-01T00:17:56.371Z,83.21
2022-08-01T00:20:25.176Z,83.42
2022-08-01T00:22:53.975Z,82.73
2022-08-01T00:25:33.735Z,82.55
2022-08-01T00:28:04.050Z,82.54
2022-08-01T00:30:34.040Z,83.31
2022-08-01T00:33:02.978Z,83.05
2022-08-01T00:35:31.604Z,82.71
2022-08-01T00:38:00.534Z,83.08
2022-08-01T00:40:29.634Z,83.10
2022-08-01T00:43:00.960Z,82.87
2022-08-01T00:45:29.757Z,82.64
2022-08-01T00:47:58.494Z,83.22
2022-08-01T00:50:27.805Z,82.35
2022-08-01T00:52:58.671Z,82.84
2022-08-01T00:55:28.614Z,82.60
2022-08-01T00:58:04.885Z,82.91
2022-08-01T01:00:52.384Z,82.96
2022-08-01T01:06:29.193Z,82.84
2022-08-01T01:09:12.947Z,83.12
2022-08-01T01:11:50.210Z,83.17
2022-08-01T01:14:47.091Z,83.35
2022-08-01T01:17:41.969Z,82.94
2022-08-01T01:20:21.012Z,82.83
2022-08-01T01:23:21.190Z,83.20
2022-08-01T01:26:18.374Z,82.73
2022-08-01T01:29:06.206Z,83.07
2022-08-01T01:31:45.322Z,83.16
2022-08-01T01:34:16.862Z,83.14
2022-08-01T01:36:48.260Z,82.43
2022-08-01T01:39:21.617Z,82.86
2022-08-01T01:41:53.184Z,83.28
2022-08-01T01:44:22.103Z,83.06
2022-08-01T01:46:52.479Z,82.33
2022-08-01T01:49:27.427Z,82.74
2022-08-01T01:52:03.972Z,82.98
2022-08-01T01:54:37.293Z,82.29
2022-08-01T01:57:07.824Z,83.09
2022-08-01T01:59:40.849Z,82.88
2022-08-01T02:02:11.355Z,82.67
2022-08-01T02:04:44.661Z,82.56
2022-08-01T02:07:18.501Z,82.80
2022-08-01T02:09:48.329Z,82.63
2022-08-01T02:12:19.935Z,82.30
2022-08-01T02:14:50.091Z,82.70
2022-08-01T02:17:21.332Z,82.10
2022-08-01T02:19:50.792Z,82.67
2022-08-01T02:22:26.884Z,82.44
2022-08-01T02:25:01.702Z,82.39
2022-08-01T02:27:35.415Z,82.07
2022-08-01T02:30:09.089Z,82.31
2022-08-01T02:32:42.515Z,83.16
2022-08-01T02:35:18.953Z,82.77
2022-08-01T02:37:50.290Z,83.00
2022-08-01T02:40:20.157Z,82.16
2022-08-01T02:42:51.305Z,82.88
2022-08-01T02:45:25.708Z,82.92
2022-08-01T02:48:00.164Z,82.02
2022-08-01T02:50:31.255Z,82.69
2022-08-01T02:53:02.274Z,82.57
2022-08-01T02:55:34.088Z,82.30
2022-08-01T02:58:04.152Z,82.60
2022-08-01T03:00:35.203Z,82.60
2022-08-01T03:03:09.245Z,82.15
2022-08-01T03:05:40.682Z,82.79
2022-08-01T03:08:14.898Z,81.98
2022-08-01T03:10:46.773Z,82.13
2022-08-01T03:13:16.790Z,82.65
2022-08-01T03:15:47.411Z,82.42
2022-08-01T03:18:17.755Z,82.12
2022-08-01T03:20:47.792Z,82.18
2022-08-01T03:23:18.197Z,82.13
2022-08-01T03:25:48.328Z,82.79
2022-08-01T03:28:19.941Z,82.99
2022-08-01T03:30:50.366Z,82.73
2022-08-01T03:33:19.906Z,82.69
2022-08-01T03:35:54.141Z,82.78
2022-08-01T03:38:25.666Z,82.43
2022-08-01T03:40:57.914Z,82.55
2022-08-01T03:43:32.473Z,82.26
2022-08-01T03:46:08.267Z,83.13
2022-08-01T03:48:43.917Z,82.47
2022-08-01T03:51:14.876Z,82.55
2022-08-01T03:53:46.055Z,82.54
2022-08-01T03:56:20.372Z,82.42
2022-08-01T03:58:50.482Z,82.87
2022-08-01T04:01:21.421Z,83.48
2022-08-01T04:03:51.091Z,82.60
2022-08-01T04:06:20.038Z,83.20
2022-08-01T04:08:57.092Z,83.11
2022-08-01T04:11:27.797Z,82.85
2022-08-01T04:13:58.120Z,83.33
2022-08-01T04:16:27.406Z,83.43
2022-08-01T04:18:57.541Z,82.63
2022-08-01T04:21:28.739Z,83.49
2022-08-01T04:24:03.930Z,83.07
2022-08-01T04:26:36.061Z,83.47
2022-08-01T04:29:08.217Z,82.59
2022-08-01T04:31:40.391Z,83.06
2022-08-01T04:34:10.783Z,82.58
2022-08-01T04:36:42.444Z,83.27
2022-08-01T04:39:12.004Z,82.47
2022-08-01T04:41:43.169Z,83.10
2022-08-01T04:44:14.549Z,83.26
2022-08-01T04:46:44.642Z,83.03
2022-08-01T04:49:16.827Z,82.57
2022-08-01T04:51:57.903Z,82.65
2022-08-01T04:54:26.978Z,83.12
2022-08-01T04:57:00.490Z,82.56
2022-08-01T04:59:41.591Z,83.01
2022-08-01T05:02:12.835Z,83.14
2022-08-01T05:04:42.518Z,82.41
2022-08-01T05:07:13.738Z,83.39
2022-08-01T05:09:46.396Z,83.01
2022-08-01T05:12:15.354Z,83.52
2022-08-01T05:14:44.733Z,83.10
2022-08-01T05:17:13.330Z,82.61
2022-08-01T05:19:43.457Z,82.40
2022-08-01T05:22:12.129Z,83.03
2022-08-01T05:24:41.629Z,83.16
2022-08-01T05:27:11.541Z,83.17
2022-08-01T05:29:44.689Z,82.45
2022-08-01T05:32:14.061Z,82.47
2022-08-01T05:34:42.780Z,83.15
2022-08-01T05:37:11.514Z,83.02
2022-08-01T05:39:40.643Z,83.04
2022-08-01T05:42:09.303Z,82.98
2022-08-01T05:44:38.203Z,82.91
2022-08-01T05:47:07.125Z,82.52
2022-08-01T05:49:37.817Z,81.68
2022-08-01T05:52:08.358Z,79.37
2022-08-01T05:54:37.409Z,79.02
2022-08-01T05:57:06.467Z,79.26
2022-08-01T05:59:35.964Z,78.65
2022-08-01T06:02:05.311Z,77.54
2022-08-01T06:04:34.677Z,77.08
2022-08-01T06:07:07.034Z,75.98
2022-08-01T06:09:35.928Z,74.02
2022-08-01T06:12:05.901Z,73.27
2022-08-01T06:14:36.113Z,71.27
2022-08-01T06:17:05.063Z,70.20
2022-08-01T06:19:35.781Z,70.30
2022-08-01T06:22:05.679Z,70.67
2022-08-01T06:24:34.580Z,69.78
2022-08-01T06:27:03.612Z,71.94
2022-08-01T06:29:54.302Z,72.62
2022-08-01T06:32:26.487Z,73.17
2022-08-01T06:34:56.981Z,72.69
2022-08-01T06:37:30.842Z,72.46
2022-08-01T06:40:02.409Z,73.10
2022-08-01T06:42:35.864Z,73.58
2022-08-01T06:45:04.695Z,73.12
2022-08-01T06:47:33.563Z,74.03
2022-08-01T06:50:02.290Z,74.15
2022-08-01T06:52:30.955Z,74.05
2022-08-01T06:55:00.020Z,74.24
2022-08-01T06:57:28.590Z,74.33
2022-08-01T07:00:02.581Z,74.52
2022-08-01T07:02:31.163Z,74.84
2022-08-01T07:05:01.000Z,75.12
2022-08-01T07:07:29.595Z,75.00
2022-08-01T07:09:59.450Z,74.83
2022-08-01T07:12:28.439Z,75.35
2022-08-01T07:14:57.514Z,74.89
2022-08-01T07:17:26.066Z,75.17
2022-08-01T07:19:55.024Z,75.30
2022-08-01T07:22:26.627Z,75.24
2022-08-01T07:24:56.532Z,74.65
2022-08-01T07:27:25.951Z,75.03
2022-08-01T07:29:54.908Z,74.50
2022-08-01T07:32:24.941Z,74.97
2022-08-01T07:34:54.061Z,75.52
2022-08-01T07:37:41.955Z,75.60
2022-08-01T07:40:13.018Z,75.32
2022-08-01T07:42:43.861Z,75.58
2022-08-01T07:45:13.519Z,75.06
2022-08-01T07:47:42.093Z,75.42
2022-08-01T07:50:12.080Z,75.06
2022-08-01T07:52:40.716Z,75.12
2022-08-01T07:55:11.183Z,75.43
2022-08-01T07:57:40.281Z,75.34
2022-08-01T08:00:10.855Z,75.14
2022-08-01T08:02:39.505Z,75.46
2022-08-01T08:05:09.415Z,75.24
2022-08-01T08:07:40.377Z,75.53
2022-08-01T08:10:10.907Z,75.02
2022-08-01T08:12:39.506Z,75.23
2022-08-01T08:15:10.070Z,75.18
2022-08-01T08:17:38.759Z,75.20
2022-08-01T08:20:10.375Z,75.23
2022-08-01T08:22:39.204Z,75.00
2022-08-01T08:25:09.234Z,74.79
2022-08-01T08:27:38.122Z,75.00
2022-08-01T08:30:09.090Z,74.92
2022-08-01T08:32:38.158Z,74.26
2022-08-01T08:35:08.600Z,74.54
2022-08-01T08:37:47.447Z,74.42
2022-08-01T08:40:17.587Z,74.21
2022-08-01T08:42:47.272Z,73.82
2022-08-01T08:45:16.042Z,73.99
2022-08-01T08:47:47.444Z,74.00
2022-08-01T08:50:16.689Z,73.43
2022-08-01T08:52:48.556Z,73.64
2022-08-01T08:55:19.796Z,73.05
2022-08-01T08:57:50.249Z,72.86
2022-08-01T09:00:19.167Z,72.44
2022-08-01T09:02:50.004Z,72.05
2022-08-01T09:05:26.020Z,71.10
2022-08-01T09:08:09.547Z,70.20
2022-08-01T09:10:38.486Z,69.87
2022-08-01T09:13:11.435Z,69.22
2022-08-01T09:15:42.383Z,69.09
2022-08-01T09:18:27.032Z,68.74
2022-08-01T09:21:09.919Z,68.62
2022-08-01T09:23:53.344Z,68.45
2022-08-01T09:26:32.343Z,67.78
2022-08-01T09:29:05.758Z,67.35
2022-08-01T09:31:47.471Z,66.67
2022-08-01T09:34:19.954Z,66.69
2022-08-01T09:36:57.382Z,66.33
2022-08-01T09:39:28.002Z,64.99
2022-08-01T09:41:59.204Z,65.07
2022-08-01T09:44:42.318Z,64.67
2022-08-01T09:47:15.576Z,62.77
2022-08-01T09:49:50.558Z,62.86
2022-08-01T09:52:26.008Z,62.03
2022-08-01T09:54:57.182Z,61.26
2022-08-01T09:57:26.637Z,61.96
2022-08-01T10:00:04.543Z,61.16
2022-08-01T10:02:41.392Z,61.27
2022-08-01T10:05:21.149Z,60.87
2022-08-01T10:08:01.725Z,60.76
2022-08-01T10:10:31.838Z,59.85
2022-08-01T10:13:03.381Z,59.63
2022-08-01T10:15:37.223Z,59.12
2022-08-01T10:18:16.830Z,58.48
2022-08-01T10:20:57.996Z,58.42
2022-08-01T10:23:39.697Z,58.55
2022-08-01T10:26:13.230Z,57.77
2022-08-01T10:28:45.547Z,57.61
2022-08-01T10:31:15.272Z,57.47
2022-08-01T10:33:51.784Z,56.71
2022-08-01T10:36:23.637Z,56.26
2022-08-01T10:38:58.160Z,56.06
2022-08-01T10:41:29.877Z,55.95
2022-08-01T10:44:00.148Z,55.39
2022-08-01T10:46:31.365Z,55.84
2022-08-01T10:49:08.099Z,54.86
2022-08-01T10:51:52.157Z,55.13
2022-08-01T10:54:27.569Z,54.58
2022-08-01T10:57:00.649Z,54.88
2022-08-01T10:59:50.371Z,54.43
2022-08-01T11:02:32.739Z,54.22
2022-08-01T11:05:07.970Z,54.07
2022-08-01T11:07:49.631Z,53.34
2022-08-01T11:10:25.687Z,53.98
2022-08-01T11:12:54.996Z,54.68
2022-08-01T11:15:30.271Z,53.55
2022-08-01T11:18:05.203Z,52.88
2022-08-01T11:20:41.620Z,52.80
2022-08-01T11:23:21.786Z,52.46
2022-08-01T11:26:14.836Z,52.61
2022-08-01T11:29:19.959Z,52.54
2022-08-01T11:31:52.787Z,52.45
2022-08-01T11:34:57.807Z,51.80
2022-08-01T11:37:30.724Z,51.02
2022-08-01T11:40:24.993Z,51.27
2022-08-01T11:43:20.232Z,51.30
2022-08-01T11:45:50.803Z,50.20
2022-08-01T11:48:20.947Z,50.09
2022-08-01T11:50:52.237Z,50.24
2022-08-01T11:53:22.112Z,50.13
2022-08-01T11:55:52.926Z,50.26
2022-08-01T11:58:30.639Z,49.89
2022-08-01T12:01:03.287Z,50.00
2022-08-01T12:03:36.093Z,49.04
2022-08-01T12:06:05.416Z,48.40
2022-08-01T12:08:36.895Z,48.56
2022-08-01T12:11:06.849Z,48.27
2022-08-01T12:13:43.749Z,48.30
2022-08-01T12:16:13.021Z,48.80
2022-08-01T12:18:42.870Z,48.31
2022-08-01T12:21:11.555Z,47.48
2022-08-01T12:23:40.365Z,47.35
2022-08-01T12:26:31.734Z,46.95
2022-08-01T12:29:01.993Z,47.10
2022-08-01T12:31:35.210Z,47.10
2022-08-01T12:34:28.959Z,46.99
2022-08-01T12:37:07.200Z,47.60
2022-08-01T12:39:40.025Z,46.82
2022-08-01T12:42:11.288Z,46.77
2022-08-01T12:44:41.718Z,47.20
2022-08-01T12:47:11.290Z,46.83
2022-08-01T12:49:44.619Z,46.81
2022-08-01T12:52:14.035Z,46.56
2022-08-01T12:55:01.456Z,46.19
2022-08-01T12:57:33.520Z,46.38
2022-08-01T13:00:20.303Z,46.77
2022-08-01T13:02:50.987Z,46.72
2022-08-01T13:05:19.856Z,46.54
2022-08-01T13:07:51.097Z,46.21
2022-08-01T13:10:29.473Z,46.18
2022-08-01T13:12:59.743Z,45.98
2022-08-01T13:15:32.223Z,45.95
2022-08-01T13:18:02.952Z,45.98
2022-08-01T13:20:34.348Z,46.36
2022-08-01T13:23:15.118Z,46.31
2022-08-01T13:25:55.945Z,46.37
2022-08-01T13:28:28.005Z,46.25
2022-08-01T13:31:00.257Z,46.26
2022-08-01T13:33:41.477Z,46.23
2022-08-01T13:36:10.908Z,45.92
2022-08-01T13:38:58.287Z,45.92
2022-08-01T13:41:28.108Z,45.93
2022-08-01T13:43:59.583Z,45.38
2022-08-01T13:46:29.875Z,44.96
2022-08-01T13:49:05.188Z,44.97
2022-08-01T13:51:46.503Z,44.93
2022-08-01T13:54:15.812Z,45.09
2022-08-01T13:56:44.579Z,45.04
2022-08-01T13:59:13.298Z,45.57
2022-08-01T14:01:42.318Z,45.00
2022-08-01T14:04:11.243Z,45.22
2022-08-01T14:06:40.178Z,45.18
2022-08-01T14:09:17.273Z,44.84
2022-08-01T14:11:47.033Z,45.02
2022-08-01T14:14:16.417Z,45.21
2022-08-01T14:16:46.128Z,45.33
2022-08-01T14:19:17.299Z,45.36
2022-08-01T14:21:48.477Z,45.50
2022-08-01T14:24:17.202Z,45.35
2022-08-01T14:26:45.862Z,45.48
2022-08-01T14:29:14.526Z,45.60
2022-08-01T14:31:44.420Z,45.19
2022-08-01T14:34:13.712Z,44.68
2022-08-01T14:36:43.783Z,44.84
2022-08-01T14:39:15.025Z,45.22
2022-08-01T14:41:44.025Z,44.87
2022-08-01T14:44:15.463Z,45.00
2022-08-01T14:46:57.731Z,44.88
2022-08-01T14:49:45.647Z,44.90
2022-08-01T14:52:14.898Z,45.36
2022-08-01T14:54:43.632Z,45.35
2022-08-01T14:57:12.762Z,45.36
2022-08-01T14:59:41.453Z,45.62
2022-08-01T15:02:11.735Z,45.73
2022-08-01T15:04:43.870Z,46.18
2022-08-01T15:07:12.971Z,46.36
2022-08-01T15:09:48.185Z,46.38
2022-08-01T15:12:18.400Z,46.63
2022-08-01T15:14:53.155Z,46.64
2022-08-01T15:17:24.612Z,46.52
2022-08-01T15:19:59.562Z,46.61
2022-08-01T15:22:29.482Z,46.62
2022-08-01T15:25:02.830Z,46.77
2022-08-01T15:27:31.539Z,47.01
2022-08-01T15:30:00.720Z,46.98
2022-08-01T15:32:29.669Z,47.13
2022-08-01T15:35:00.770Z,47.04
2022-08-01T15:37:29.397Z,47.08
2022-08-01T15:39:58.874Z,47.47
2022-08-01T15:42:27.507Z,47.44
2022-08-01T15:44:56.350Z,47.35
2022-08-01T15:47:26.355Z,47.56
2022-08-01T15:49:57.438Z,47.56
2022-08-01T15:52:30.953Z,47.63
2022-08-01T15:55:03.177Z,47.93
2022-08-01T15:57:32.325Z,48.12
2022-08-01T16:00:00.997Z,48.17
2022-08-01T16:02:30.217Z,48.31
2022-08-01T16:05:01.301Z,48.48
2022-08-01T16:07:29.944Z,48.85
2022-08-01T16:09:59.897Z,49.20
2022-08-01T16:12:28.706Z,49.44
2022-08-01T16:15:00.612Z,49.42
2022-08-01T16:17:29.813Z,49.59
2022-08-01T16:19:59.830Z,50.27
2022-08-01T16:22:28.525Z,50.10
2022-08-01T16:25:00.864Z,50.81
2022-08-01T16:27:32.342Z,50.99
2022-08-01T16:30:01.328Z,50.65
2022-08-01T16:32:40.675Z,51.25
2022-08-01T16:35:14.112Z,50.94
2022-08-01T16:37:44.725Z,51.33
2022-08-01T16:40:14.666Z,51.76
2022-08-01T16:42:44.115Z,51.88
2022-08-01T16:45:17.545Z,51.71
2022-08-01T16:47:47.783Z,51.96
2022-08-01T16:50:16.439Z,52.04
2022-08-01T16:52:46.234Z,52.22
2022-08-01T16:55:15.146Z,52.44
2022-08-01T16:57:43.748Z,52.70
2022-08-01T17:00:20.938Z,52.88
2022-08-01T17:02:50.420Z,52.79
2022-08-01T17:05:19.757Z,53.31
2022-08-01T17:07:48.799Z,53.15
2022-08-01T17:10:18.139Z,53.62
2022-08-01T17:12:46.796Z,53.25
2022-08-01T17:15:19.133Z,53.49
2022-08-01T17:17:48.377Z,53.39
2022-08-01T17:20:17.050Z,53.88
2022-08-01T17:22:45.850Z,53.75
2022-08-01T17:25:15.880Z,54.05
2022-08-01T17:27:45.984Z,54.28
2022-08-01T17:30:14.962Z,54.35
2022-08-01T17:32:47.650Z,54.89
2022-08-01T17:35:16.561Z,55.01
2022-08-01T17:37:48.073Z,55.19
2022-08-01T17:40:38.986Z,54.99
2022-08-01T17:43:06.111Z,55.41
2022-08-01T17:45:38.162Z,55.21
2022-08-01T17:48:16.775Z,55.28
2022-08-01T17:50:47.218Z,55.59
2022-08-01T17:53:21.301Z,55.92
2022-08-01T17:55:55.374Z,56.42
2022-08-01T17:58:49.535Z,56.05
2022-08-01T18:01:20.145Z,56.11
2022-08-01T18:03:49.533Z,56.38
2022-08-01T18:06:23.230Z,56.60
2022-08-01T18:08:55.565Z,56.71
2022-08-01T18:11:27.532Z,57.14
2022-08-01T18:13:59.687Z,57.11
2022-08-01T18:16:28.792Z,57.36
2022-08-01T18:18:58.954Z,57.91
2022-08-01T18:21:28.174Z,57.75
2022-08-01T18:23:58.862Z,57.66
2022-08-01T18:26:28.813Z,58.21
2022-08-01T18:28:59.177Z,58.46
2022-08-01T18:31:27.716Z,58.50
2022-08-01T18:33:56.836Z,58.72
2022-08-01T18:36:34.804Z,58.35
2022-08-01T18:39:10.361Z,58.96
2022-08-01T18:41:39.947Z,58.78
2022-08-01T18:44:09.372Z,58.89
2022-08-01T18:46:39.504Z,59.08
2022-08-01T18:49:10.180Z,59.39
2022-08-01T18:51:45.210Z,59.39
2022-08-01T18:54:15.404Z,59.91
2022-08-01T18:56:45.647Z,59.92
2022-08-01T18:59:14.472Z,59.73
2022-08-01T19:01:43.559Z,60.33
2022-08-01T19:04:12.824Z,60.19
2022-08-01T19:06:42.739Z,60.49
2022-08-01T19:09:11.359Z,60.76
2022-08-01T19:11:39.897Z,60.55
2022-08-01T19:14:08.497Z,60.58
2022-08-01T19:16:37.468Z,60.69
2022-08-01T19:19:08.857Z,60.91
2022-08-01T19:21:44.268Z,60.93
2022-08-01T19:24:23.838Z,61.44
2022-08-01T19:27:05.110Z,61.50
2022-08-01T19:29:38.838Z,61.95
2022-08-01T19:32:10.315Z,61.85
2022-08-01T19:34:49.299Z,61.83
2022-08-01T19:37:18.748Z,61.97
2022-08-01T19:39:47.268Z,61.89
2022-08-01T19:42:17.325Z,62.47
2022-08-01T19:44:47.743Z,62.16
2022-08-01T19:47:16.908Z,62.69
2022-08-01T19:49:46.140Z,62.69
2022-08-01T19:52:25.034Z,62.61
2022-08-01T19:54:56.394Z,63.23
2022-08-01T19:57:45.322Z,63.01
2022-08-01T20:00:23.878Z,62.87
2022-08-01T20:02:59.433Z,63.34
2022-08-01T20:05:28.441Z,63.18
2022-08-01T20:08:02.235Z,63.57
2022-08-01T20:10:31.658Z,63.90
2022-08-01T20:13:02.133Z,63.94
2022-08-01T20:15:32.993Z,63.69
2022-08-01T20:18:01.603Z,63.68
2022-08-01T20:20:33.041Z,63.79
2022-08-01T20:23:18.173Z,63.99
2022-08-01T20:25:50.172Z,63.92
2022-08-01T20:28:24.042Z,64.61
2022-08-01T20:30:55.831Z,64.58
2022-08-01T20:33:25.415Z,64.50
2022-08-01T20:35:55.340Z,64.83
2022-08-01T20:38:27.451Z,64.70
2022-08-01T20:40:59.097Z,64.69
2022-08-01T20:43:28.220Z,65.25
2022-08-01T20:45:58.761Z,64.95
2022-08-01T20:48:30.646Z,65.41
2022-08-01T20:51:15.503Z,65.42
2022-08-01T20:53:48.777Z,65.53
2022-08-01T20:56:28.630Z,65.73
2022-08-01T20:59:06.045Z,65.74
2022-08-01T21:01:39.990Z,65.71
2022-08-01T21:04:26.945Z,65.58
2022-08-01T21:07:01.359Z,65.69
2022-08-01T21:09:36.870Z,66.09
2022-08-01T21:12:16.688Z,66.24
2022-08-01T21:14:51.206Z,66.17
2022-08-01T21:17:33.745Z,66.44
2022-08-01T21:20:07.707Z,66.08
2022-08-01T21:22:41.544Z,66.49
2022-08-01T21:25:13.566Z,66.81
2022-08-01T21:27:44.547Z,66.56
2022-08-01T21:30:16.510Z,66.34
2022-08-01T21:32:48.805Z,66.83
2022-08-01T21:35:20.823Z,66.58
2022-08-01T21:37:52.528Z,66.76
2022-08-01T21:40:23.954Z,66.86
2022-08-01T21:42:54.370Z,67.29
2022-08-01T21:45:25.085Z,67.06
2022-08-01T21:47:54.493Z,67.14
2022-08-01T21:50:24.048Z,67.38
2022-08-01T21:53:04.963Z,67.15
2022-08-01T21:55:51.706Z,67.21
2022-08-01T21:58:33.911Z,67.54
2022-08-01T22:01:17.899Z,67.62
2022-08-01T22:03:46.555Z,67.69
2022-08-01T22:06:19.643Z,67.80
2022-08-01T22:08:53.111Z,67.62
2022-08-01T22:11:24.876Z,67.80
2022-08-01T22:13:55.099Z,67.72
2022-08-01T22:16:27.764Z,68.10
2022-08-01T22:18:57.210Z,67.94
2022-08-01T22:21:27.952Z,68.24
2022-08-01T22:24:00.538Z,68.10
2022-08-01T22:26:34.077Z,68.17
2022-08-01T22:29:04.110Z,68.09
2022-08-01T22:31:37.984Z,68.17
2022-08-01T22:34:08.876Z,68.35
2022-08-01T22:36:38.189Z,68.38
2022-08-01T22:39:07.857Z,68.28
2022-08-01T22:42:01.698Z,68.37
2022-08-01T22:44:48.271Z,68.42
2022-08-01T22:47:29.283Z,68.85
2022-08-01T22:50:06.095Z,68.95
2022-08-01T22:52:54.985Z,68.65
2022-08-01T22:55:25.543Z,68.80
2022-08-01T22:58:18.031Z,69.33
2022-08-01T23:00:52.689Z,68.97
2022-08-01T23:03:31.729Z,69.15
2022-08-01T23:06:04.293Z,69.04
2022-08-01T23:08:39.907Z,69.15
2022-08-01T23:11:09.315Z,69.64
2022-08-01T23:13:39.028Z,69.16
2022-08-01T23:16:14.415Z,69.49
2022-08-01T23:18:47.802Z,69.47
2022-08-01T23:21:18.591Z,69.82
2022-08-01T23:23:48.507Z,69.91
2022-08-01T23:26:19.022Z,69.61
2022-08-01T23:28:49.857Z,70.11
2022-08-01T23:31:20.037Z,69.87
2022-08-01T23:33:49.089Z,70.25
2022-08-01T23:36:18.232Z,70.03
2022-08-01T23:38:47.285Z,70.00
2022-08-01T23:41:16.404Z,70.43
2022-08-01T23:43:52.253Z,70.52
2022-08-01T23:46:21.175Z,70.46
2022-08-01T23:48:51.132Z,70.31
2022-08-01T23:51:24.713Z,70.67
2022-08-01T23:54:04.642Z,70.77
2022-08-01T23:56:33.897Z,70.74
2022-08-01T23:59:05.805Z,70.45
